createdAt,value
2023-02-10T07:29:41.698Z,4.78
2023-02-10T07:32:08.760Z,5.20
2023-02-10T07:34:36.449Z,5.00
2023-02-10T07:37:03.537Z,5.05
2023-02-10T07:39:34.374Z,5.20
2023-02-10T07:42:01.461Z,5.00
2023-02-10T07:44:31.705Z,5.50
2023-02-10T07:46:58.991Z,4.80
2023-02-10T07:49:31.631Z,4.80
2023-02-10T07:51:59.306Z,5.25
2023-02-10T07:54:26.604Z,5.07
2023-02-10T07:56:53.750Z,5.20
2023-02-10T07:59:20.795Z,5.07
2023-02-10T08:01:47.876Z,5.10
2023-02-10T08:04:15.401Z,5.07
2023-02-10T08:06:42.506Z,5.00
2023-02-10T08:09:13.111Z,4.85
2023-02-10T08:11:44.240Z,4.88
2023-02-10T08:14:11.265Z,4.93
2023-02-10T08:16:38.337Z,5.50
2023-02-10T08:19:05.376Z,5.32
2023-02-10T08:21:32.398Z,5.15
2023-02-10T08:23:59.512Z,5.00
2023-02-10T08:26:26.596Z,5.15
2023-02-10T08:28:55.615Z,5.20
2023-02-10T08:31:23.274Z,5.10
2023-02-10T08:33:50.359Z,5.00
2023-02-10T08:36:18.591Z,5.35
2023-02-10T08:38:46.368Z,5.37
2023-02-10T08:41:13.678Z,6.00
2023-02-10T08:43:40.872Z,5.55
2023-02-10T08:46:08.361Z,5.28
2023-02-10T08:48:40.142Z,5.50
2023-02-10T08:51:08.846Z,5.50
2023-02-10T08:53:39.202Z,5.18
2023-02-10T08:56:08.971Z,5.38
2023-02-10T08:58:36.459Z,5.50
2023-02-10T09:01:09.391Z,5.78
2023-02-10T09:03:36.386Z,5.47
2023-02-10T09:06:03.424Z,5.82
2023-02-10T09:08:30.529Z,5.93
2023-02-10T09:10:58.871Z,6.10
2023-02-10T09:13:25.973Z,6.10
2023-02-10T09:15:53.058Z,5.90
2023-02-10T09:18:20.149Z,5.65
2023-02-10T09:20:47.400Z,5.85
2023-02-10T09:23:14.438Z,5.70
2023-02-10T09:25:41.526Z,5.73
2023-02-10T09:28:09.602Z,5.70
2023-02-10T09:30:36.685Z,6.07
2023-02-10T09:33:03.761Z,5.80
2023-02-10T09:35:30.818Z,5.63
2023-02-10T09:37:57.936Z,6.13
2023-02-10T09:40:31.946Z,5.72
2023-02-10T09:43:17.795Z,5.70
2023-02-10T09:45:45.631Z,5.90
2023-02-10T09:48:37.809Z,5.80
2023-02-10T09:51:17.144Z,5.82
2023-02-10T09:53:44.278Z,6.07
2023-02-10T09:56:16.574Z,5.90
2023-02-10T09:58:49.888Z,5.15
2023-02-10T10:01:16.970Z,6.30
2023-02-10T10:03:50.130Z,6.47
2023-02-10T10:06:20.340Z,6.10
2023-02-10T10:09:05.921Z,6.22
2023-02-10T10:11:49.431Z,6.40
2023-02-10T10:14:24.453Z,6.20
2023-02-10T10:17:10.561Z,6.65
2023-02-10T10:19:56.617Z,6.17
2023-02-10T10:22:42.468Z,6.13
2023-02-10T10:25:16.842Z,6.20
2023-02-10T10:28:09.398Z,6.38
2023-02-10T10:30:47.311Z,6.15
2023-02-10T10:33:23.787Z,6.63
2023-02-10T10:35:51.463Z,6.38
2023-02-10T10:38:23.514Z,6.40
2023-02-10T10:40:52.185Z,6.45
2023-02-10T10:43:31.268Z,6.00
2023-02-10T10:46:05.295Z,6.95
2023-02-10T10:48:33.244Z,6.63
2023-02-10T10:51:05.999Z,6.57
2023-02-10T10:54:29.606Z,6.18
2023-02-10T10:57:01.782Z,6.40
2023-02-10T10:59:41.936Z,6.50
2023-02-10T11:02:17.077Z,6.20
2023-02-10T11:04:45.925Z,6.43
2023-02-10T11:07:19.391Z,6.10
2023-02-10T11:09:52.889Z,7.00
2023-02-10T11:12:40.308Z,6.35
2023-02-10T11:15:25.435Z,6.47
2023-02-10T11:17:52.971Z,6.70
2023-02-10T11:20:29.659Z,6.60
2023-02-10T11:22:58.137Z,6.43
2023-02-10T11:25:28.963Z,7.13
2023-02-10T11:27:56.892Z,7.13
2023-02-10T11:30:27.115Z,6.65
2023-02-10T11:32:54.257Z,6.28
2023-02-10T11:35:21.455Z,6.43
2023-02-10T11:37:56.426Z,4.78
2023-02-10T11:40:25.826Z,4.50
2023-02-10T11:42:54.269Z,4.57
2023-02-10T11:45:22.867Z,5.43
2023-02-10T11:48:00.540Z,5.43
2023-02-10T11:50:29.275Z,5.55
2023-02-10T11:52:57.449Z,5.60
2023-02-10T11:55:30.424Z,5.60
2023-02-10T11:58:27.672Z,5.27
2023-02-10T12:01:13.240Z,5.22
2023-02-10T12:03:40.207Z,5.57
2023-02-10T12:06:10.280Z,5.50
2023-02-10T12:08:55.905Z,5.70
2023-02-10T12:11:41.324Z,6.00
2023-02-10T12:14:22.673Z,6.13
2023-02-10T12:16:57.236Z,6.10
2023-02-10T12:19:49.360Z,8.15
2023-02-10T12:22:34.775Z,20.75
2023-02-10T12:25:08.125Z,23.40
2023-02-10T12:27:43.442Z,16.38
2023-02-10T12:30:25.828Z,14.40
2023-02-10T12:32:55.960Z,12.73
2023-02-10T12:35:41.514Z,12.18
2023-02-10T12:38:34.125Z,10.70
2023-02-10T12:41:04.184Z,10.70
2023-02-10T12:43:40.596Z,10.68
2023-02-10T12:46:07.747Z,10.07
2023-02-10T12:48:53.206Z,10.70
2023-02-10T12:51:37.515Z,10.90
2023-02-10T12:54:37.476Z,10.30
2023-02-10T12:57:15.537Z,8.45
2023-02-10T13:00:00.888Z,8.80
2023-02-10T13:02:31.100Z,7.05
2023-02-10T13:05:00.166Z,7.97
2023-02-10T13:07:33.541Z,7.60
2023-02-10T13:10:19.045Z,8.05
2023-02-10T13:13:30.541Z,8.13
2023-02-10T13:16:02.182Z,7.72
2023-02-10T13:18:33.828Z,8.90
2023-02-10T13:21:08.960Z,9.03
2023-02-10T13:23:41.257Z,8.75
2023-02-10T13:29:36.343Z,8.40
2023-02-10T13:32:03.383Z,8.88
2023-02-10T13:34:32.217Z,8.50
2023-02-10T13:37:06.247Z,8.68
2023-02-10T13:39:33.769Z,7.22
2023-02-10T13:42:06.641Z,6.53
2023-02-10T13:44:41.543Z,6.30
2023-02-10T13:47:26.981Z,6.85
2023-02-10T13:49:56.568Z,6.70
2023-02-10T13:55:52.550Z,7.55
2023-02-10T13:58:27.012Z,7.60
2023-02-10T14:00:54.772Z,7.85
2023-02-10T14:03:23.844Z,8.02
2023-02-10T14:06:08.551Z,7.90
2023-02-10T14:08:59.503Z,7.82
2023-02-10T14:11:30.622Z,8.00
2023-02-10T14:13:59.438Z,8.88
2023-02-10T14:16:31.408Z,8.40
2023-02-10T14:19:00.142Z,7.93
2023-02-10T14:21:27.329Z,9.25
2023-02-10T14:23:58.057Z,9.23
2023-02-10T14:26:30.538Z,8.52
